Time;durP1;ratioP1;P1;durP2;ratioP2;P2;SDS_P1;SDS_P2;PMS_P1;PMS_P2;Temp;Humidity;BMP_temperature;BMP_pressure;BME280_temperature;BME280_humidity;BME280_pressure;Samples;Min_cycle;Max_cycle;Signal;HPM_P1;HPM_P2
2022/06/13 00:00:09;;;;;;;5.40;2.30;;;16.80;99.90;;;;;;5036494;28;20426;-80
2022/06/13 00:02:35;;;;;;;5.60;2.63;;;16.80;99.90;;;;;;5037965;28;20195;-80
2022/06/13 00:05:02;;;;;;;7.50;4.00;;;16.80;99.90;;;;;;5022230;28;20518;-79
2022/06/13 00:07:28;;;;;;;4.00;2.53;;;16.70;99.90;;;;;;5039698;28;20462;-79
2022/06/13 00:09:53;;;;;;;10.30;3.03;;;16.60;99.90;;;;;;5040135;28;20426;-79
2022/06/13 00:12:19;;;;;;;8.00;2.70;;;16.50;99.90;;;;;;5040257;28;20204;-79
2022/06/13 00:14:45;;;;;;;7.73;2.70;;;16.40;99.90;;;;;;5022558;28;20191;-79
2022/06/13 00:17:10;;;;;;;4.00;2.60;;;16.40;99.90;;;;;;5039548;28;20270;-80
2022/06/13 00:19:36;;;;;;;5.00;2.87;;;16.40;99.90;;;;;;5021498;28;20783;-79
2022/06/13 00:22:03;;;;;;;3.80;2.40;;;16.30;99.90;;;;;;5039464;28;20221;-79
2022/06/13 00:24:28;;;;;;;3.30;1.97;;;16.30;99.90;;;;;;5038957;28;20423;-80
2022/06/13 00:26:54;;;;;;;4.50;2.60;;;16.20;99.90;;;;;;5038713;28;20945;-79
2022/06/13 00:29:20;;;;;;;3.97;2.20;;;16.10;99.90;;;;;;5038802;28;20188;-79
2022/06/13 00:31:45;;;;;;;8.00;2.70;;;16.10;99.90;;;;;;5038889;28;20188;-80
2022/06/13 00:34:11;;;;;;;6.53;2.90;;;16.10;99.90;;;;;;5038422;28;20591;-79
2022/06/13 00:36:37;;;;;;;4.40;2.00;;;16.00;99.90;;;;;;5038137;28;20686;-79
2022/06/13 00:39:03;;;;;;;6.60;2.80;;;16.00;99.90;;;;;;5038668;28;20184;-79
2022/06/13 00:41:34;;;;;;;7.00;2.30;;;16.00;99.90;;;;;;5038918;28;20597;-79
2022/06/13 00:44:00;;;;;;;3.70;2.30;;;16.00;99.90;;;;;;5037850;28;20505;-79
2022/06/13 00:46:32;;;;;;;4.27;2.60;;;16.00;99.90;;;;;;5037898;28;20439;-79
2022/06/13 00:49:08;;;;;;;4.97;2.90;;;15.90;99.90;;;;;;5038299;28;20192;-80
2022/06/13 00:51:39;;;;;;;5.33;2.30;;;15.80;99.90;;;;;;5037637;28;20450;-79
2022/06/13 00:54:06;;;;;;;4.10;2.27;;;15.70;99.90;;;;;;5037750;28;20541;-79
2022/06/13 00:56:35;;;;;;;3.47;1.90;;;15.80;99.90;;;;;;5037040;28;20418;-79
2022/06/13 00:59:03;;;;;;;4.20;2.40;;;15.70;99.90;;;;;;5037025;28;20772;-79
2022/06/13 01:01:30;;;;;;;7.03;2.70;;;15.60;99.90;;;;;;5037098;28;20427;-79
2022/06/13 01:03:58;;;;;;;6.70;2.57;;;15.50;99.90;;;;;;5037197;28;20451;-79
2022/06/13 01:06:26;;;;;;;4.60;2.00;;;15.50;99.90;;;;;;5036386;28;20411;-79
2022/06/13 01:08:52;;;;;;;4.27;2.60;;;15.50;99.90;;;;;;5037097;28;20483;-79
2022/06/13 01:11:20;;;;;;;6.17;2.80;;;15.40;99.90;;;;;;5018987;28;20930;-79
2022/06/13 01:14:05;;;;;;;6.63;3.77;;;15.30;99.90;;;;;;5037617;28;20415;-80
2022/06/13 01:16:46;;;;;;;5.43;2.70;;;15.30;99.90;;;;;;5036231;28;20477;-79
2022/06/13 01:19:49;;;;;;;5.07;2.50;;;15.20;99.90;;;;;;5036681;28;20425;-79
2022/06/13 01:22:45;;;;;;;3.70;2.30;;;15.20;99.90;;;;;;5017802;28;20494;-79
2022/06/13 01:25:47;;;;;;;5.00;2.33;;;15.10;99.90;;;;;;5036348;28;20410;-79
2022/06/13 01:28:36;;;;;;;4.70;2.87;;;15.10;99.90;;;;;;5035908;28;20845;-79
2022/06/13 01:31:16;;;;;;;4.50;3.33;;;15.00;99.90;;;;;;5018147;28;20430;-79
2022/06/13 01:33:53;;;;;;;5.67;2.40;;;15.00;99.90;;;;;;5036621;28;20396;-80
2022/06/13 01:36:37;;;;;;;6.43;2.47;;;15.00;99.90;;;;;;5035595;28;20399;-79
2022/06/13 01:39:11;;;;;;;4.37;3.37;;;15.10;99.90;;;;;;5036361;28;20498;-79
2022/06/13 01:42:01;;;;;;;7.90;3.57;;;;;;;;;;5017972;28;20434;-79
2022/06/13 01:44:29;;;;;;;7.00;2.80;;;14.90;99.90;;;;;;5017731;28;20418;-79
2022/06/13 01:47:07;;;;;;;4.00;2.57;;;15.00;99.90;;;;;;5035604;28;20910;-79
2022/06/13 01:50:02;;;;;;;5.43;2.80;;;15.00;99.90;;;;;;5035888;28;20414;-79
2022/06/13 01:52:30;;;;;;;4.27;2.40;;;15.00;99.90;;;;;;5035255;28;20417;-79
2022/06/13 01:55:08;;;;;;;6.37;2.70;;;15.00;99.90;;;;;;5033910;28;20411;-79
2022/06/13 01:57:43;;;;;;;4.80;3.07;;;15.00;99.90;;;;;;5034780;28;20443;-79
2022/06/13 02:00:11;;;;;;;4.60;2.97;;;15.00;99.90;;;;;;5017181;28;20415;-79
2022/06/13 02:02:46;;;;;;;5.53;3.30;;;15.00;99.90;;;;;;5035138;28;20407;-79
2022/06/13 02:05:31;;;;;;;4.50;2.90;;;14.90;99.90;;;;;;5035817;28;20386;-79
2022/06/13 02:08:20;;;;;;;3.20;2.30;;;14.80;99.90;;;;;;5017400;28;20466;-80
2022/06/13 02:11:24;;;;;;;5.60;2.97;;;14.70;99.90;;;;;;5035123;28;20459;-79
2022/06/13 02:14:13;;;;;;;4.10;2.37;;;14.70;99.90;;;;;;5032303;28;20445;-79
2022/06/13 02:16:57;;;;;;;4.77;2.50;;;14.70;99.90;;;;;;5034317;28;20407;-79
2022/06/13 02:19:55;;;;;;;5.10;2.60;;;14.70;99.90;;;;;;5035102;28;20411;-79
2022/06/13 02:22:35;;;;;;;7.50;3.60;;;14.70;99.90;;;;;;5034680;28;20426;-79
2022/06/13 02:25:13;;;;;;;5.50;2.70;;;14.80;99.90;;;;;;5034895;28;20826;-80
2022/06/13 02:27:44;;;;;;;8.77;3.20;;;14.70;99.90;;;;;;5034861;28;20455;-79
2022/06/13 02:30:13;;;;;;;7.00;2.90;;;14.80;99.90;;;;;;5035628;28;20425;-79
2022/06/13 02:32:46;;;;;;;9.30;2.90;;;14.80;99.90;;;;;;5017276;28;20443;-79
2022/06/13 02:35:17;;;;;;;6.33;3.20;;;14.80;99.90;;;;;;5016820;28;20922;-80
2022/06/13 02:37:58;;;;;;;5.20;2.40;;;14.80;99.90;;;;;;5016084;28;20479;-79
2022/06/13 02:40:29;;;;;;;6.97;3.83;;;14.80;99.90;;;;;;5033181;28;20422;-79
2022/06/13 02:43:00;;;;;;;5.90;3.13;;;14.80;99.90;;;;;;5033161;28;20407;-79
2022/06/13 02:45:31;;;;;;;13.80;3.20;;;14.90;99.90;;;;;;5032695;28;20422;-79
2022/06/13 02:48:24;;;;;;;10.50;3.83;;;14.90;99.90;;;;;;5015032;28;20466;-79
2022/06/13 02:51:09;;;;;;;6.63;3.10;;;14.80;99.90;;;;;;5032724;28;20423;-79
2022/06/13 02:53:45;;;;;;;5.60;2.77;;;14.80;99.90;;;;;;5015261;28;20418;-79
2022/06/13 02:56:30;;;;;;;5.10;2.50;;;14.80;99.90;;;;;;5015030;28;20465;-79
2022/06/13 02:59:17;;;;;;;8.60;3.33;;;14.90;99.90;;;;;;5070564;23;20501;-79
2022/06/13 03:01:47;;;;;;;5.27;3.07;;;14.90;99.90;;;;;;5053148;28;20448;-79
2022/06/13 03:04:36;;;;;;;5.23;3.07;;;15.00;99.90;;;;;;5054588;28;20757;-79
2022/06/13 03:07:06;;;;;;;5.43;3.40;;;14.90;99.90;;;;;;5057275;28;20420;-80
2022/06/13 03:09:40;;;;;;;7.40;3.20;;;14.90;99.90;;;;;;5070393;28;20455;-80
2022/06/13 03:12:31;;;;;;;6.50;3.37;;;14.80;99.90;;;;;;5078531;28;20396;-80
2022/06/13 03:15:27;;;;;;;5.97;3.73;;;14.80;99.90;;;;;;5078437;28;20463;-79
2022/06/13 03:17:58;;;;;;;7.57;3.53;;;14.80;99.90;;;;;;5077781;28;20408;-79
2022/06/13 03:20:41;;;;;;;7.30;3.70;;;14.80;99.90;;;;;;5076820;28;20429;-79
2022/06/13 03:23:21;;;;;;;10.30;4.60;;;14.90;99.90;;;;;;5076742;28;20500;-79
2022/06/13 03:26:02;;;;;;;7.13;3.47;;;14.70;99.90;;;;;;5077856;28;20386;-79
2022/06/13 03:28:42;;;;;;;5.80;3.30;;;14.70;99.90;;;;;;5078009;28;20864;-80
2022/06/13 03:31:14;;;;;;;5.63;3.50;;;14.80;99.90;;;;;;5078733;28;20405;-78
2022/06/13 03:33:42;;;;;;;11.97;3.80;;;14.80;99.90;;;;;;5078358;28;20462;-78
2022/06/13 03:36:31;;;;;;;7.77;3.70;;;14.80;99.90;;;;;;5077741;28;20511;-79
2022/06/13 03:39:01;;;;;;;7.37;2.80;;;14.80;99.90;;;;;;5078353;28;20461;-78
2022/06/13 03:41:32;;;;;;;8.07;3.60;;;14.70;99.90;;;;;;5076332;28;20428;-80
2022/06/13 03:44:06;;;;;;;4.93;2.70;;;14.70;99.90;;;;;;5077859;28;20410;-79
2022/06/13 03:46:54;;;;;;;5.33;3.30;;;14.70;99.90;;;;;;5075833;28;20926;-78
2022/06/13 03:49:22;;;;;;;6.00;3.03;;;14.70;99.90;;;;;;5077586;28;20445;-79
2022/06/13 03:51:52;;;;;;;6.50;2.80;;;14.70;99.90;;;;;;5076372;28;20951;-79
2022/06/13 03:54:26;;;;;;;4.40;3.40;;;14.80;99.90;;;;;;5077558;28;20417;-78
2022/06/13 03:57:24;;;;;;;8.50;3.70;;;14.70;99.90;;;;;;5077289;28;20393;-78
2022/06/13 03:59:59;;;;;;;8.10;3.40;;;14.70;99.90;;;;;;5065034;28;20495;-78
2022/06/13 04:02:29;;;;;;;5.47;3.30;;;14.70;99.90;;;;;;5074633;28;20445;-78
2022/06/13 04:04:55;;;;;;;6.40;3.90;;;14.70;99.90;;;;;;5076011;28;20479;-78
2022/06/13 04:07:23;;;;;;;7.80;4.07;;;14.70;99.90;;;;;;5075510;28;20461;-78
2022/06/13 04:09:53;;;;;;;5.90;3.77;;;14.80;99.90;;;;;;5073695;28;20441;-78
2022/06/13 04:12:21;;;;;;;11.30;3.77;;;14.80;99.90;;;;;;5074857;28;20452;-78
2022/06/13 04:15:03;;;;;;;6.10;3.60;;;14.90;99.90;;;;;;5075388;28;20987;-78
2022/06/13 04:17:58;;;;;;;6.57;3.67;;;15.00;99.90;;;;;;5073801;28;20433;-78
2022/06/13 04:20:53;;;;;;;7.57;3.90;;;15.00;99.90;;;;;;5075031;28;20854;-78
2022/06/13 04:23:33;;;;;;;4.60;3.40;;;15.00;99.90;;;;;;5063025;28;20521;-78
2022/06/13 04:26:07;;;;;;;5.53;2.80;;;15.00;99.90;;;;;;5074714;28;20414;-78
2022/06/13 04:28:47;;;;;;;4.90;3.13;;;15.00;99.90;;;;;;5073472;28;20472;-78
2022/06/13 04:31:16;;;;;;;5.37;3.13;;;15.10;99.90;;;;;;5074619;28;20413;-78
2022/06/13 04:33:47;;;;;;;4.70;2.80;;;15.20;99.90;;;;;;5074612;28;20417;-78
2022/06/13 04:36:15;;;;;;;4.67;2.90;;;15.10;99.90;;;;;;5073520;28;20798;-78
2022/06/13 04:38:45;;;;;;;5.77;2.83;;;15.30;99.90;;;;;;5074513;28;20433;-78
2022/06/13 04:41:12;;;;;;;6.00;3.17;;;15.40;99.90;;;;;;5074774;28;20448;-78
2022/06/13 04:43:41;;;;;;;7.53;3.50;;;15.50;99.90;;;;;;5073958;28;20416;-78
2022/06/13 04:46:19;;;;;;;4.50;2.80;;;15.60;99.90;;;;;;5072682;28;20486;-78
2022/06/13 04:48:48;;;;;;;6.10;2.93;;;15.70;99.90;;;;;;5073824;28;20524;-79
2022/06/13 04:51:18;;;;;;;7.07;3.27;;;15.90;99.90;;;;;;5074264;28;20421;-79
2022/06/13 04:54:01;;;;;;;11.97;3.60;;;15.90;99.90;;;;;;5073696;28;20421;-78
2022/06/13 04:56:28;;;;;;;6.20;3.67;;;15.90;99.90;;;;;;5073110;28;20904;-78
2022/06/13 04:58:55;;;;;;;6.67;3.40;;;16.00;99.90;;;;;;5073665;28;20453;-78
2022/06/13 05:01:28;;;;;;;4.90;3.10;;;16.00;99.90;;;;;;5074085;28;20417;-79
2022/06/13 05:03:57;;;;;;;7.60;3.37;;;16.10;99.90;;;;;;5074019;28;20417;-78
2022/06/13 05:06:31;;;;;;;6.00;3.53;;;16.10;99.90;;;;;;5066499;28;20481;-78
2022/06/13 05:09:01;;;;;;;4.70;3.50;;;16.20;99.90;;;;;;5053302;28;20554;-78
2022/06/13 05:11:48;;;;;;;6.70;3.50;;;16.30;99.90;;;;;;5052847;28;20422;-79
2022/06/13 05:14:21;;;;;;;7.40;3.80;;;16.30;99.90;;;;;;5053275;28;20418;-78
2022/06/13 05:17:05;;;;;;;6.33;3.13;;;16.30;99.90;;;;;;5051230;28;20437;-79
2022/06/13 05:19:36;;;;;;;7.10;3.30;;;16.40;99.90;;;;;;5056952;28;20549;-79
2022/06/13 05:22:18;;;;;;;4.73;3.30;;;16.40;99.90;;;;;;5076418;28;20423;-78
2022/06/13 05:25:21;;;;;;;9.23;2.97;;;16.40;99.90;;;;;;5054428;28;20773;-79
2022/06/13 05:27:46;;;;;;;6.70;3.10;;;16.40;99.90;;;;;;5041898;28;20492;-77
2022/06/13 05:30:17;;;;;;;5.70;2.93;;;16.40;99.90;;;;;;5056374;28;20434;-78
2022/06/13 05:32:43;;;;;;;10.33;3.67;;;16.40;99.90;;;;;;5056595;28;20740;-78
2022/06/13 05:35:15;;;;;;;5.97;3.27;;;16.50;99.90;;;;;;5056630;28;20890;-77
2022/06/13 05:37:41;;;;;;;8.20;3.50;;;16.60;99.90;;;;;;5055918;28;20504;-78
2022/06/13 05:40:12;;;;;;;7.90;3.33;;;16.60;99.90;;;;;;5056846;28;20913;-77
2022/06/13 05:42:38;;;;;;;6.90;3.10;;;16.40;99.90;;;;;;5055639;28;20433;-78
2022/06/13 05:45:04;;;;;;;5.70;2.90;;;16.40;99.90;;;;;;5055138;28;20434;-77
2022/06/13 05:47:30;;;;;;;6.80;3.80;;;16.40;99.90;;;;;;5055902;28;20207;-77
2022/06/13 05:49:55;;;;;;;7.53;3.57;;;16.40;99.90;;;;;;5054660;28;20265;-78
2022/06/13 05:52:21;;;;;;;6.20;3.57;;;16.30;99.90;;;;;;5056827;28;20657;-77
2022/06/13 05:54:46;;;;;;;5.53;3.13;;;16.20;99.90;;;;;;5056105;28;20184;-77
2022/06/13 05:57:12;;;;;;;5.50;3.50;;;16.20;99.90;;;;;;5056605;28;20255;-77
2022/06/13 05:59:37;;;;;;;7.60;3.60;;;16.30;99.90;;;;;;5054778;28;20215;-77
2022/06/13 06:02:03;;;;;;;7.37;3.50;;;16.40;99.90;;;;;;5056246;28;20269;-78
2022/06/13 06:04:29;;;;;;;10.13;3.53;;;16.50;99.90;;;;;;5055663;28;20206;-78
2022/06/13 06:06:55;;;;;;;5.50;3.00;;;16.60;99.90;;;;;;5056433;28;20639;-78
2022/06/13 06:09:21;;;;;;;4.13;2.50;;;16.70;99.90;;;;;;5056351;28;20602;-77
2022/06/13 06:11:46;;;;;;;6.93;3.20;;;16.90;99.90;;;;;;5056810;28;20414;-77
2022/06/13 06:14:12;;;;;;;6.27;3.57;;;17.00;99.90;;;;;;5056717;28;20171;-77
2022/06/13 06:16:38;;;;;;;8.67;3.40;;;17.00;99.90;;;;;;5056266;28;20172;-77
2022/06/13 06:19:03;;;;;;;6.30;3.27;;;17.20;99.90;;;;;;5056606;28;20437;-78
2022/06/13 06:21:29;;;;;;;5.97;4.00;;;17.30;99.90;;;;;;5056193;28;20176;-77
2022/06/13 06:23:54;;;;;;;11.07;4.07;;;17.50;99.90;;;;;;5055035;28;20180;-77
2022/06/13 06:26:23;;;;;;;5.53;3.10;;;17.40;99.90;;;;;;5054721;28;20180;-78
2022/06/13 06:28:50;;;;;;;4.70;3.10;;;17.10;99.90;;;;;;5055964;28;20204;-77
2022/06/13 06:31:15;;;;;;;6.80;3.40;;;16.90;99.90;;;;;;5056818;28;20766;-78
2022/06/13 06:33:41;;;;;;;15.13;4.10;;;16.70;99.90;;;;;;5056397;28;20493;-77
2022/06/13 06:36:10;;;;;;;7.60;3.30;;;16.70;99.90;;;;;;5055712;28;20468;-77
2022/06/13 06:38:35;;;;;;;5.70;3.27;;;16.70;99.90;;;;;;5054900;28;20290;-78
2022/06/13 06:41:01;;;;;;;5.40;3.30;;;16.80;99.90;;;;;;5055671;28;20453;-77
2022/06/13 06:43:27;;;;;;;5.30;3.30;;;16.80;99.90;;;;;;5056182;28;20245;-77
2022/06/13 06:45:52;;;;;;;8.27;4.77;;;16.90;99.90;;;;;;5055362;28;20229;-78
2022/06/13 06:48:23;;;;;;;5.63;3.90;;;16.90;99.90;;;;;;5056753;28;20207;-77
2022/06/13 06:50:50;;;;;;;8.20;4.20;;;16.90;99.90;;;;;;5055895;28;20184;-79
2022/06/13 06:53:19;;;;;;;5.83;3.70;;;16.90;99.90;;;;;;5056698;28;20909;-79
2022/06/13 07:00:55;;;;;;;7.10;3.93;;;17.30;99.90;;;;;;5056812;28;20402;-78
2022/06/13 07:03:20;;;;;;;7.03;4.10;;;17.50;99.90;;;;;;5056940;28;20266;-78
2022/06/13 07:05:46;;;;;;;7.50;3.67;;;17.70;99.90;;;;;;5057673;28;20460;-78
2022/06/13 07:08:13;;;;;;;7.70;3.90;;;17.80;99.90;;;;;;5058608;28;20272;-78
2022/06/13 07:10:39;;;;;;;7.47;3.90;;;17.80;99.90;;;;;;5057934;28;20421;-78
2022/06/13 07:13:05;;;;;;;8.50;4.27;;;18.00;99.90;;;;;;5057870;28;20403;-79
2022/06/13 07:15:30;;;;;;;7.53;4.17;;;18.40;99.90;;;;;;5051243;28;20180;-79
2022/06/13 07:17:56;;;;;;;11.83;4.73;;;18.70;99.90;;;;;;5053652;28;20192;-79
2022/06/13 07:20:22;;;;;;;6.90;4.10;;;18.90;99.90;;;;;;5054215;28;20199;-78
2022/06/13 07:22:53;;;;;;;10.10;5.00;;;19.10;99.90;;;;;;5052334;28;20190;-80
2022/06/13 07:25:22;;;;;;;8.13;4.20;;;19.10;99.90;;;;;;5052926;28;20902;-78
2022/06/13 07:27:48;;;;;;;8.20;4.17;;;19.10;99.90;;;;;;5051391;28;20469;-78
2022/06/13 07:30:16;;;;;;;6.73;3.80;;;19.10;99.90;;;;;;5051771;28;20521;-77
2022/06/13 07:32:43;;;;;;;4.93;3.53;;;19.10;99.90;;;;;;5051978;28;20218;-77
2022/06/13 07:35:16;;;;;;;7.90;4.87;;;19.30;99.90;;;;;;5051975;28;20501;-76
2022/06/13 07:40:27;;;;;;;8.23;4.57;;;19.40;99.90;;;;;;5051898;28;20947;-78
2022/06/13 07:42:58;;;;;;;9.53;5.17;;;19.50;99.90;;;;;;5051665;28;20422;-77
2022/06/13 07:45:27;;;;;;;10.80;4.77;;;19.60;99.90;;;;;;5050491;28;20461;-77
2022/06/13 07:47:54;;;;;;;11.13;5.63;;;19.70;99.90;;;;;;5051144;28;20461;-77
2022/06/13 07:50:22;;;;;;;10.20;5.53;;;19.70;99.90;;;;;;5051903;28;20426;-78
2022/06/13 07:52:49;;;;;;;11.17;5.50;;;19.70;99.90;;;;;;5053466;28;20411;-77
2022/06/13 07:55:16;;;;;;;10.53;6.70;;;19.70;99.90;;;;;;5055985;28;20781;-77
2022/06/13 07:57:42;;;;;;;8.27;5.67;;;19.80;99.90;;;;;;5054586;28;20483;-78
2022/06/13 08:00:12;;;;;;;13.00;8.37;;;19.90;99.90;;;;;;5054077;28;20561;-78
2022/06/13 08:02:39;;;;;;;13.60;7.43;;;19.90;99.90;;;;;;5056771;28;20475;-78
2022/06/13 08:05:05;;;;;;;10.77;7.73;;;19.90;99.90;;;;;;5060485;28;20446;-78
2022/06/13 08:07:31;;;;;;;14.63;8.70;;;19.80;99.90;;;;;;5061981;28;20454;-79
2022/06/13 08:09:57;;;;;;;15.93;7.70;;;20.00;99.90;;;;;;5061468;28;20430;-79
2022/06/13 08:12:24;;;;;;;12.10;7.70;;;20.50;99.90;;;;;;5061690;28;20540;-79
2022/06/13 08:14:49;;;;;;;15.87;7.57;;;20.70;99.90;;;;;;5060657;28;20422;-78
2022/06/13 08:17:18;;;;;;;10.80;6.93;;;21.20;99.90;;;;;;5059670;28;20440;-79
2022/06/13 08:19:44;;;;;;;14.53;6.83;;;21.90;99.90;;;;;;5061310;28;20195;-79
2022/06/13 08:22:09;;;;;;;9.93;6.63;;;22.30;99.90;;;;;;5060633;28;20521;-79
2022/06/13 08:24:36;;;;;;;11.07;5.73;;;22.60;99.90;;;;;;5061783;28;20557;-78
2022/06/13 08:27:03;;;;;;;14.13;6.83;;;22.80;99.90;;;;;;5059052;28;20190;-80
2022/06/13 08:29:29;;;;;;;11.60;6.00;;;22.20;99.90;;;;;;5057378;28;20452;-78
2022/06/13 08:31:54;;;;;;;8.63;6.27;;;22.10;99.90;;;;;;5058607;28;20848;-78
2022/06/13 08:34:20;;;;;;;11.53;6.07;;;22.70;99.90;;;;;;5058969;28;20582;-79
2022/06/13 08:36:46;;;;;;;9.60;5.30;;;23.60;99.90;;;;;;5058752;28;20203;-79
2022/06/13 08:39:12;;;;;;;8.83;5.00;;;24.10;99.90;;;;;;5058482;28;20215;-79
2022/06/13 08:41:50;;;;;;;12.37;6.67;;;24.60;99.90;;;;;;5056602;28;20422;-79
2022/06/13 08:44:43;;;;;;;10.60;5.63;;;24.20;99.90;;;;;;5056930;28;20646;-78
2022/06/13 08:47:30;;;;;;;7.17;5.00;;;23.80;99.90;;;;;;5056084;28;20453;-78
2022/06/13 08:50:11;;;;;;;8.97;5.80;;;23.20;99.90;;;;;;5057858;28;20464;-78
2022/06/13 08:52:42;;;;;;;13.93;8.70;;;22.70;99.90;;;;;;5057645;28;20422;-78
2022/06/13 08:55:25;;;;;;;13.70;7.00;;;22.10;99.90;;;;;;5055883;28;20414;-77
2022/06/13 08:58:26;;;;;;;11.00;6.80;;;22.60;99.90;;;;;;5056460;28;20501;-79
2022/06/13 09:01:00;;;;;;;13.50;6.80;;;24.20;99.90;;;;;;5057635;22;20556;-80
2022/06/13 09:03:48;;;;;;;13.37;5.80;;;24.00;99.90;;;;;;5036614;28;20951;-80
2022/06/13 09:06:23;;;;;;;7.80;4.40;;;25.10;99.90;;;;;;5036202;28;20438;-80
2022/06/13 09:09:07;;;;;;;12.57;5.73;;;25.20;99.90;;;;;;5037415;28;20474;-80
2022/06/13 09:11:55;;;;;;;8.90;4.63;;;25.80;99.90;;;;;;5037315;28;20422;-80
2022/06/13 09:14:28;;;;;;;10.70;4.77;;;26.40;99.90;;;;;;5035598;28;20468;-79
2022/06/13 09:17:23;;;;;;;10.30;4.30;;;25.60;97.30;;;;;;5035490;28;20439;-80
2022/06/13 09:20:08;;;;;;;12.40;4.73;;;24.80;97.80;;;;;;5028657;28;20427;-79
2022/06/13 09:22:43;;;;;;;7.17;4.33;;;24.00;97.70;;;;;;5053401;28;20427;-80
2022/06/13 09:25:16;;;;;;;8.97;4.20;;;23.50;99.90;;;;;;5034386;28;20473;-80
2022/06/13 09:28:00;;;;;;;9.37;5.17;;;23.00;99.90;;;;;;5034081;28;20463;-79
2022/06/13 09:30:53;;;;;;;8.67;4.97;;;22.80;99.90;;;;;;5032449;28;20419;-79
2022/06/13 09:33:51;;;;;;;9.87;4.70;;;22.60;99.90;;;;;;5032378;28;20415;-81
2022/06/13 09:36:28;;;;;;;9.53;4.17;;;22.20;99.90;;;;;;5005109;28;20439;-81
2022/06/13 09:38:59;;;;;;;6.00;3.80;;;22.00;99.90;;;;;;5032336;28;20454;-82
2022/06/13 09:41:28;;;;;;;6.53;3.23;;;21.90;99.90;;;;;;5032563;28;20934;-81
2022/06/13 09:44:09;;;;;;;12.87;3.97;;;21.70;99.90;;;;;;5032200;28;20929;-82
2022/06/13 09:46:51;;;;;;;11.57;4.37;;;21.50;99.90;;;;;;5032134;28;20482;-82
2022/06/13 09:49:28;;;;;;;9.57;4.10;;;21.40;99.90;;;;;;5031861;28;20467;-79
2022/06/13 09:52:18;;;;;;;6.03;3.90;;;22.90;99.90;;;;;;5031747;28;20936;-79
2022/06/13 09:55:09;;;;;;;8.33;3.70;;;22.90;99.90;;;;;;5033231;28;20873;-79
2022/06/13 09:57:48;;;;;;;6.00;3.37;;;22.80;99.90;;;;;;5000921;28;20443;-79
2022/06/13 10:00:45;;;;;;;7.30;3.37;;;23.70;99.90;;;;;;5031221;28;20442;-79
2022/06/13 10:03:30;;;;;;;6.43;3.13;;;24.20;99.90;;;;;;5031569;28;20469;-80
2022/06/13 10:06:14;;;;;;;5.10;3.27;;;24.80;99.90;;;;;;5031072;28;20953;-79
2022/06/13 10:09:05;;;;;;;6.83;3.40;;;24.50;99.90;;;;;;5031231;28;20537;-79
2022/06/13 10:11:35;;;;;;;6.80;2.87;;;24.00;99.90;;;;;;5030987;28;20837;-79
2022/06/13 10:14:50;;;;;;;8.83;3.30;;;23.50;99.90;;;;;;5031556;28;20418;-79
2022/06/13 10:17:49;;;;;;;8.00;3.30;;;22.90;99.90;;;;;;4954119;28;20485;-79
2022/06/13 10:20:36;;;;;;;7.53;3.40;;;22.80;99.90;;;;;;5030872;28;20415;-79
2022/06/13 10:23:37;;;;;;;12.33;3.00;;;23.20;99.90;;;;;;5031003;28;20427;-79
2022/06/13 10:26:21;;;;;;;7.27;2.90;;;24.20;99.90;;;;;;5026459;28;20435;-79
2022/06/13 10:28:57;;;;;;;6.23;3.57;;;24.50;99.00;;;;;;5030844;28;20473;-80
2022/06/13 10:31:23;;;;;;;5.37;3.10;;;25.90;96.30;;;;;;5030766;28;20933;-79
2022/06/13 10:33:49;;;;;;;7.97;3.23;;;27.60;93.90;;;;;;5030764;28;20514;-79
2022/06/13 10:36:27;;;;;;;7.70;3.10;;;27.70;90.00;;;;;;5030297;28;20244;-80
2022/06/13 10:39:10;;;;;;;5.00;2.80;;;27.70;83.30;;;;;;5030555;28;20446;-79
2022/06/13 10:41:40;;;;;;;8.23;2.70;;;26.60;79.00;;;;;;5030396;28;20957;-79
2022/06/13 10:44:09;;;;;;;4.60;2.73;;;25.80;79.40;;;;;;5030644;28;21003;-79
2022/06/13 10:46:35;;;;;;;9.30;2.67;;;26.00;81.00;;;;;;5030296;28;20513;-80
2022/06/13 10:49:04;;;;;;;5.93;2.90;;;26.00;81.10;;;;;;5030502;28;20466;-79
2022/06/13 10:51:30;;;;;;;5.20;2.80;;;25.20;80.40;;;;;;5030784;28;20709;-79
2022/06/13 10:54:13;;;;;;;8.13;2.70;;;25.10;83.30;;;;;;5030991;28;20433;-78
2022/06/13 10:57:07;;;;;;;4.63;2.30;;;25.30;88.90;;;;;;5030704;28;20439;-78
2022/06/13 10:59:35;;;;;;;4.20;2.00;;;26.00;76.80;;;;;;5031297;28;20439;-79
2022/06/13 11:02:05;;;;;;;9.03;2.60;;;26.00;77.00;;;;;;5031469;28;20472;-79
2022/06/13 11:04:33;;;;;;;5.30;2.50;;;25.80;75.20;;;;;;5030416;28;20434;-79
2022/06/13 11:07:03;;;;;;;4.03;1.97;;;25.40;73.40;;;;;;5030181;28;20784;-80
2022/06/13 11:09:46;;;;;;;6.67;3.17;;;25.60;77.40;;;;;;5030431;28;20470;-79
2022/06/13 11:12:33;;;;;;;6.53;2.30;;;25.60;73.40;;;;;;5030552;28;20454;-79
2022/06/13 11:24:08;;;;;;;7.00;2.50;;;24.40;80.60;;;;;;5034333;28;20422;-79
2022/06/13 11:29:24;;;;;;;6.00;2.50;;;23.70;79.20;;;;;;5037896;28;20461;-80
2022/06/13 11:31:52;;;;;;;5.50;2.27;;;23.70;81.70;;;;;;5036812;28;20793;-79
2022/06/13 11:34:32;;;;;;;4.43;2.57;;;23.80;77.00;;;;;;5034974;28;20180;-79
2022/06/13 11:37:12;;;;;;;2.90;1.70;;;23.90;76.00;;;;;;5033737;28;20457;-78
2022/06/13 11:39:41;;;;;;;4.67;2.07;;;23.70;79.30;;;;;;5033978;28;20411;-80
2022/06/13 11:42:33;;;;;;;3.10;1.53;;;23.50;80.00;;;;;;5033963;28;20454;-79
2022/06/13 11:45:26;;;;;;;5.90;2.50;;;23.20;77.30;;;;;;5030400;28;20427;-80
2022/06/13 11:47:52;;;;;;;3.83;2.33;;;23.30;78.30;;;;;;5033507;28;20475;-80
2022/06/13 11:50:28;;;;;;;7.90;2.70;;;23.50;78.40;;;;;;5033340;28;20411;-79
2022/06/13 11:55:56;;;;;;;5.43;2.40;;;24.50;76.60;;;;;;5034709;28;20422;-79
2022/06/13 11:58:31;;;;;;;3.43;1.70;;;24.80;73.40;;;;;;5033526;28;20868;-79
2022/06/13 12:01:18;;;;;;;4.53;2.00;;;24.70;74.50;;;;;;5033231;28;20452;-79
2022/06/13 12:03:57;;;;;;;4.13;2.60;;;24.60;70.40;;;;;;5033502;28;20521;-79
2022/06/13 12:06:23;;;;;;;5.23;2.20;;;24.30;72.20;;;;;;5032699;28;20882;-80
2022/06/13 12:08:58;;;;;;;4.00;1.80;;;24.30;70.90;;;;;;5032979;28;20509;-79
2022/06/13 12:11:24;;;;;;;4.03;1.90;;;24.10;72.00;;;;;;5032929;28;20805;-81
2022/06/13 12:13:52;;;;;;;5.80;3.13;;;24.20;74.30;;;;;;5033094;28;20510;-80
2022/06/13 12:16:45;;;;;;;4.70;1.90;;;24.50;74.80;;;;;;5032791;28;20200;-79
2022/06/13 12:19:39;;;;;;;4.90;2.00;;;25.00;74.70;;;;;;5033038;28;20415;-80
2022/06/13 12:22:46;;;;;;;4.63;1.90;;;24.90;72.40;;;;;;5032880;28;20481;-79
2022/06/13 12:25:18;;;;;;;4.10;2.00;;;24.10;74.40;;;;;;5016469;28;20427;-79
2022/06/13 12:28:07;;;;;;;7.30;1.93;;;24.00;76.60;;;;;;5032535;28;20467;-80
2022/06/13 12:30:55;;;;;;;5.17;2.17;;;23.80;77.50;;;;;;5049202;28;20442;-79
2022/06/13 12:33:46;;;;;;;3.77;2.00;;;23.70;77.90;;;;;;5032676;28;20419;-80
2022/06/13 12:36:21;;;;;;;5.67;2.30;;;23.30;79.90;;;;;;5032182;28;20509;-79
2022/06/13 12:39:08;;;;;;;4.70;2.20;;;22.90;80.80;;;;;;5031947;28;20839;-79
2022/06/13 12:42:01;;;;;;;4.20;2.30;;;22.70;81.40;;;;;;5032664;28;20445;-79
2022/06/13 12:45:03;;;;;;;8.70;2.80;;;23.10;84.20;;;;;;5032658;28;20422;-79
2022/06/13 12:47:53;;;;;;;5.40;2.07;;;23.70;84.50;;;;;;5032150;28;20530;-79
2022/06/13 12:50:37;;;;;;;6.67;3.20;;;23.70;81.00;;;;;;5029686;28;20613;-80
2022/06/13 12:53:13;;;;;;;4.00;1.90;;;24.10;82.90;;;;;;5014366;28;20907;-79
2022/06/13 12:55:50;;;;;;;6.53;2.70;;;24.10;82.30;;;;;;5036345;28;21039;-79
2022/06/13 12:58:21;;;;;;;5.77;2.57;;;24.10;80.80;;;;;;5012258;28;20428;-80
2022/06/13 13:01:20;;;;;;;4.07;2.53;;;24.00;82.80;;;;;;5011844;28;20447;-79
2022/06/13 13:04:27;;;;;;;3.90;1.60;;;23.80;77.80;;;;;;5011408;28;20942;-79
2022/06/13 13:07:09;;;;;;;4.53;1.73;;;23.90;77.90;;;;;;5005532;28;20501;-80
2022/06/13 13:10:17;;;;;;;3.57;1.90;;;24.10;81.80;;;;;;5032641;28;20467;-79
2022/06/13 13:13:07;;;;;;;3.80;2.00;;;24.20;79.20;;;;;;4962369;28;20424;-79
2022/06/13 13:15:38;;;;;;;2.80;1.60;;;24.70;77.20;;;;;;5031439;28;20423;-79
2022/06/13 13:18:15;;;;;;;4.63;2.30;;;24.90;73.40;;;;;;5031675;28;20914;-79
2022/06/13 13:20:56;;;;;;;3.17;1.77;;;25.00;70.90;;;;;;5031632;28;20435;-80
2022/06/13 13:23:52;;;;;;;3.63;1.90;;;26.00;64.80;;;;;;5032001;28;20577;-80
2022/06/13 13:26:24;;;;;;;3.20;1.60;;;26.50;61.30;;;;;;5027644;28;20455;-80
2022/06/13 13:29:32;;;;;;;4.90;2.47;;;26.70;61.40;;;;;;5019523;28;20931;-79
2022/06/13 13:32:32;;;;;;;3.33;1.70;;;26.40;62.80;;;;;;4997345;28;20435;-79
2022/06/13 13:35:15;;;;;;;3.67;1.80;;;26.20;62.70;;;;;;5026161;28;20934;-80
2022/06/13 13:37:55;;;;;;;3.90;2.30;;;25.50;62.40;;;;;;5031245;28;20953;-79
2022/06/13 13:40:39;;;;;;;5.23;2.03;;;25.20;66.40;;;;;;5031204;28;20972;-79
2022/06/13 13:43:33;;;;;;;4.50;2.50;;;25.40;69.10;;;;;;5031526;28;20961;-80
2022/06/13 13:46:05;;;;;;;3.43;2.43;;;25.10;67.00;;;;;;5031008;28;20478;-79
2022/06/13 13:48:53;;;;;;;3.33;2.10;;;24.50;68.50;;;;;;5030654;28;20470;-79
2022/06/13 13:51:24;;;;;;;3.60;2.20;;;24.40;71.00;;;;;;5030797;28;20415;-81